createdAt,value
2018-01-01T00:01:09.709Z,29.93
2018-01-01T00:03:38.543Z,29.67
2018-01-01T00:06:07.382Z,33.57
2018-01-01T00:08:37.028Z,35.90
2018-01-01T00:11:05.863Z,41.10
2018-01-01T00:13:34.749Z,36.53
2018-01-01T00:16:05.190Z,38.87
2018-01-01T00:18:34.823Z,32.83
2018-01-01T00:21:03.654Z,30.93
2018-01-01T00:23:32.524Z,27.60
2018-01-01T00:26:01.364Z,29.07
2018-01-01T00:28:30.199Z,31.10
2018-01-01T00:30:59.077Z,27.77
2018-01-01T00:33:27.913Z,23.20
2018-01-01T00:35:56.773Z,21.70
2018-01-01T00:38:25.601Z,21.30
2018-01-01T00:40:54.454Z,28.83
2018-01-01T00:43:23.313Z,30.10
2018-01-01T00:45:52.166Z,28.47
2018-01-01T00:48:20.999Z,24.33
2018-01-01T00:50:49.887Z,31.23
2018-01-01T00:53:18.701Z,21.80
2018-01-01T00:55:47.565Z,24.80
2018-01-01T00:58:16.422Z,22.17
2018-01-01T01:00:46.047Z,24.47
2018-01-01T01:03:15.642Z,24.63
2018-01-01T01:05:45.309Z,24.40
2018-01-01T01:08:14.156Z,16.83
2018-01-01T01:10:43.026Z,22.00
2018-01-01T01:13:12.631Z,18.53
2018-01-01T01:15:42.240Z,18.23
2018-01-01T01:18:11.858Z,18.93
2018-01-01T01:20:41.462Z,15.47
2018-01-01T01:23:11.077Z,13.00
2018-01-01T01:25:39.910Z,15.43
2018-01-01T01:28:08.750Z,15.20
2018-01-01T01:30:38.378Z,16.40
2018-01-01T01:33:07.234Z,16.37
2018-01-01T01:35:37.313Z,13.97
2018-01-01T01:38:06.153Z,14.00
2018-01-01T01:40:35.757Z,15.43
2018-01-01T01:43:05.367Z,18.60
2018-01-01T01:45:34.189Z,11.60
2018-01-01T01:48:03.818Z,13.43
2018-01-01T01:50:32.654Z,13.73
2018-01-01T01:53:01.489Z,10.10
2018-01-01T01:55:31.095Z,13.60
2018-01-01T01:57:59.939Z,11.27
2018-01-01T02:00:28.831Z,13.77
2018-01-01T02:02:57.667Z,12.97
2018-01-01T02:05:26.510Z,14.50
2018-01-01T02:07:55.337Z,10.97
2018-01-01T02:10:24.325Z,11.60
2018-01-01T02:12:53.136Z,7.90
2018-01-01T02:15:21.962Z,8.10
2018-01-01T02:17:50.799Z,15.83
2018-01-01T02:20:19.643Z,5.20
2018-01-01T02:22:48.474Z,12.73
2018-01-01T02:25:17.330Z,13.43
2018-01-01T02:27:46.152Z,9.13
2018-01-01T02:30:15.007Z,5.27
2018-01-01T02:32:43.935Z,9.80
2018-01-01T02:35:12.742Z,10.23
2018-01-01T02:37:41.588Z,9.17
2018-01-01T02:40:11.179Z,7.13
2018-01-01T02:42:40.006Z,6.90
2018-01-01T02:45:09.600Z,10.07
2018-01-01T02:47:39.234Z,11.77
2018-01-01T02:50:08.061Z,3.77
2018-01-01T02:52:36.897Z,4.17
2018-01-01T02:55:05.718Z,7.63
2018-01-01T02:57:34.555Z,7.60
2018-01-01T03:00:04.158Z,10.03
2018-01-01T03:02:33.765Z,2.93
2018-01-01T03:05:03.379Z,2.90
2018-01-01T03:07:32.954Z,4.90
2018-01-01T03:10:01.806Z,5.73
2018-01-01T03:12:30.641Z,15.40
2018-01-01T03:14:59.490Z,7.03
2018-01-01T03:17:28.309Z,5.00
2018-01-01T03:19:57.134Z,5.20
2018-01-01T03:22:26.728Z,5.20
2018-01-01T03:24:56.314Z,4.17
2018-01-01T03:27:25.150Z,2.93
2018-01-01T03:29:54.769Z,4.70
2018-01-01T03:32:23.574Z,7.63
2018-01-01T03:34:52.741Z,6.10
2018-01-01T03:37:21.573Z,5.37
2018-01-01T03:39:50.397Z,8.23
2018-01-01T03:42:20.547Z,6.93
2018-01-01T03:44:50.107Z,5.80
2018-01-01T03:47:19.715Z,3.50
2018-01-01T03:49:49.311Z,3.53
2018-01-01T03:52:19.239Z,5.77
2018-01-01T03:54:48.833Z,3.80
2018-01-01T03:57:17.687Z,8.40
2018-01-01T03:59:46.512Z,7.23
2018-01-01T04:02:15.354Z,6.63
2018-01-01T04:04:44.194Z,5.00
2018-01-01T04:07:13.016Z,6.43
2018-01-01T04:09:42.614Z,5.70
2018-01-01T04:12:12.217Z,6.30
2018-01-01T04:14:41.809Z,3.77
2018-01-01T04:17:11.400Z,3.03
2018-01-01T04:19:40.242Z,4.40
2018-01-01T04:22:09.068Z,4.77
2018-01-01T04:24:37.906Z,4.63
2018-01-01T04:27:06.740Z,6.70
2018-01-01T04:29:35.562Z,3.90
2018-01-01T04:32:05.165Z,8.77
2018-01-01T04:34:34.028Z,3.20
2018-01-01T04:37:02.867Z,5.00
2018-01-01T04:39:32.430Z,4.57
2018-01-01T04:42:01.283Z,5.00
2018-01-01T04:44:30.136Z,3.73
2018-01-01T04:46:59.737Z,6.77
2018-01-01T04:49:28.553Z,8.27
2018-01-01T04:51:58.162Z,6.33
2018-01-01T04:54:27.748Z,3.90
2018-01-01T04:56:56.611Z,3.90
2018-01-01T04:59:25.433Z,2.90
2018-01-01T05:01:54.287Z,4.90
2018-01-01T05:04:23.109Z,3.57
2018-01-01T05:06:53.471Z,4.23
2018-01-01T05:09:22.313Z,3.33
2018-01-01T05:11:51.164Z,6.30
2018-01-01T05:14:20.011Z,9.23
2018-01-01T05:16:48.817Z,3.73
2018-01-01T05:19:18.438Z,2.73
2018-01-01T05:21:47.273Z,2.43
2018-01-01T05:24:16.087Z,7.43
2018-01-01T05:26:45.681Z,2.90
2018-01-01T05:29:14.508Z,8.27
2018-01-01T05:31:43.346Z,5.80
2018-01-01T05:34:12.162Z,4.40
2018-01-01T05:36:41.765Z,3.70
2018-01-01T05:39:11.401Z,3.77
2018-01-01T05:41:40.242Z,8.00
2018-01-01T05:44:09.398Z,2.87
2018-01-01T05:46:38.202Z,3.33
2018-01-01T05:49:07.018Z,3.67
2018-01-01T05:51:35.843Z,6.27
2018-01-01T05:54:05.433Z,5.30
2018-01-01T05:56:35.023Z,2.40
2018-01-01T05:59:03.859Z,3.17
2018-01-01T06:01:33.462Z,2.90
2018-01-01T06:04:02.461Z,2.13
2018-01-01T06:06:31.272Z,1.50
2018-01-01T06:09:00.085Z,5.90
2018-01-01T06:11:28.910Z,2.17
2018-01-01T06:13:58.501Z,2.40
2018-01-01T06:16:28.111Z,7.33
2018-01-01T06:18:57.698Z,4.80
2018-01-01T06:21:26.536Z,3.43
2018-01-01T06:23:55.350Z,5.63
2018-01-01T06:26:24.206Z,2.97
2018-01-01T06:28:53.009Z,2.40
2018-01-01T06:31:21.849Z,2.27
2018-01-01T06:33:50.766Z,3.33
2018-01-01T06:36:20.358Z,1.70
2018-01-01T06:38:49.944Z,3.20
2018-01-01T06:41:19.286Z,3.60
2018-01-01T06:43:48.186Z,1.83
2018-01-01T06:46:16.992Z,3.43
2018-01-01T06:48:45.847Z,3.13
2018-01-01T06:51:15.292Z,1.20
2018-01-01T06:53:44.127Z,5.23
2018-01-01T06:56:13.498Z,4.83
2018-01-01T06:58:42.338Z,4.50
2018-01-01T07:01:11.632Z,2.87
2018-01-01T07:03:40.450Z,4.27
2018-01-01T07:06:09.279Z,3.87
2018-01-01T07:08:39.000Z,1.10
2018-01-01T07:11:08.599Z,0.93
2018-01-01T07:13:38.185Z,1.80
2018-01-01T07:16:07.026Z,4.13
2018-01-01T07:18:35.858Z,2.23
2018-01-01T07:21:04.687Z,3.37
2018-01-01T07:23:33.513Z,5.73
2018-01-01T07:26:02.402Z,1.83
2018-01-01T07:28:31.238Z,2.90
2018-01-01T07:31:00.838Z,9.43
2018-01-01T07:33:30.684Z,2.10
2018-01-01T07:35:59.562Z,2.63
2018-01-01T07:38:29.154Z,4.40
2018-01-01T07:40:58.756Z,4.50
2018-01-01T07:43:28.366Z,4.50
2018-01-01T07:45:57.982Z,5.50
2018-01-01T07:48:27.589Z,5.00
2018-01-01T07:50:57.218Z,2.13
2018-01-01T07:53:26.014Z,4.00
2018-01-01T07:55:55.149Z,4.27
2018-01-01T07:58:24.750Z,3.07
2018-01-01T08:00:53.565Z,4.87
2018-01-01T08:03:22.385Z,5.23
2018-01-01T08:05:51.424Z,5.90
2018-01-01T08:08:20.249Z,6.43
2018-01-01T08:10:49.075Z,3.30
2018-01-01T08:13:17.914Z,4.47
2018-01-01T08:15:47.517Z,3.50
2018-01-01T08:18:16.344Z,11.83
2018-01-01T08:20:45.170Z,2.40
2018-01-01T08:23:15.510Z,2.77
2018-01-01T08:25:45.089Z,2.33
2018-01-01T08:28:13.930Z,2.87
2018-01-01T08:30:42.746Z,9.20
2018-01-01T08:33:11.590Z,4.13
2018-01-01T08:35:41.181Z,6.27
2018-01-01T08:38:10.807Z,5.43
2018-01-01T08:40:40.413Z,2.10
2018-01-01T08:43:10.902Z,8.63
2018-01-01T08:45:39.787Z,18.70
2018-01-01T08:48:08.586Z,7.00
2018-01-01T08:50:38.199Z,7.00
2018-01-01T08:53:07.787Z,3.70
2018-01-01T08:55:36.621Z,6.80
2018-01-01T08:58:05.461Z,4.93
2018-01-01T09:00:34.289Z,3.37
2018-01-01T09:03:03.097Z,4.63
2018-01-01T09:05:31.946Z,4.70
2018-01-01T09:08:01.751Z,4.67
2018-01-01T09:10:31.363Z,4.90
2018-01-01T09:13:00.962Z,7.17
2018-01-01T09:15:30.666Z,4.00
2018-01-01T09:17:59.494Z,2.30
2018-01-01T09:20:28.326Z,3.80
2018-01-01T09:22:57.162Z,3.63
2018-01-01T09:25:25.967Z,6.07
2018-01-01T09:27:54.814Z,9.47
2018-01-01T09:30:24.402Z,5.60
2018-01-01T09:32:53.239Z,2.30
2018-01-01T09:35:22.055Z,7.10
2018-01-01T09:37:51.814Z,5.30
2018-01-01T09:43:01.146Z,5.27
2018-01-01T09:45:30.766Z,2.90
2018-01-01T09:48:00.420Z,1.93
2018-01-01T09:50:29.775Z,2.33
2018-01-01T09:52:58.595Z,3.17
2018-01-01T09:55:28.357Z,2.13
2018-01-01T09:57:57.236Z,2.33
2018-01-01T10:00:26.935Z,1.60
2018-01-01T10:02:55.795Z,3.27
2018-01-01T10:05:24.645Z,1.53
2018-01-01T10:07:53.482Z,1.60
2018-01-01T10:10:22.331Z,1.90
2018-01-01T10:12:51.168Z,4.93
2018-01-01T10:15:20.786Z,3.60
2018-01-01T10:17:50.365Z,2.60
2018-01-01T10:20:19.202Z,3.60
2018-01-01T10:22:48.011Z,5.70
2018-01-01T10:25:16.882Z,6.50
2018-01-01T10:27:45.724Z,3.77
2018-01-01T10:30:14.529Z,4.67
2018-01-01T10:32:43.376Z,3.03
2018-01-01T10:35:13.082Z,1.90
2018-01-01T10:37:41.929Z,2.23
2018-01-01T10:40:11.642Z,2.50
2018-01-01T10:42:41.244Z,2.73
2018-01-01T10:45:10.818Z,4.20
2018-01-01T10:47:39.666Z,1.87
2018-01-01T10:50:08.617Z,4.40
2018-01-01T10:52:37.465Z,3.33
2018-01-01T10:55:06.315Z,2.37
2018-01-01T10:57:35.129Z,1.77
2018-01-01T11:00:04.043Z,1.53
2018-01-01T11:02:32.841Z,3.20
2018-01-01T11:05:02.438Z,3.70
2018-01-01T11:07:32.029Z,3.90
2018-01-01T11:10:00.858Z,3.50
2018-01-01T11:12:30.465Z,2.53
2018-01-01T11:14:59.306Z,2.53
2018-01-01T11:17:28.142Z,2.40
2018-01-01T11:19:56.985Z,5.20
2018-01-01T11:22:26.947Z,5.63
2018-01-01T11:24:55.809Z,5.60
2018-01-01T11:27:25.427Z,3.40
2018-01-01T11:29:55.025Z,4.80
2018-01-01T11:32:24.636Z,3.70
2018-01-01T11:34:54.243Z,13.40
2018-01-01T11:37:23.880Z,2.53
2018-01-01T11:39:52.730Z,3.80
2018-01-01T11:42:22.317Z,7.77
2018-01-01T11:44:51.187Z,3.00
2018-01-01T11:47:20.015Z,3.50
2018-01-01T11:49:49.627Z,5.83
2018-01-01T11:52:18.505Z,5.90
2018-01-01T11:54:47.634Z,4.83
2018-01-01T11:57:16.506Z,4.00
2018-01-01T11:59:45.383Z,4.90
2018-01-01T12:02:14.225Z,7.50
2018-01-01T12:04:43.863Z,2.43
2018-01-01T12:07:12.709Z,4.90
2018-01-01T12:09:41.690Z,2.73
2018-01-01T12:12:10.532Z,4.97
2018-01-01T12:14:39.403Z,6.50
2018-01-01T12:17:09.008Z,2.60
2018-01-01T12:19:39.166Z,6.73
2018-01-01T12:22:08.019Z,7.33
2018-01-01T12:24:37.634Z,5.20
2018-01-01T12:27:06.466Z,2.37
2018-01-01T12:29:35.297Z,5.57
2018-01-01T12:32:04.906Z,5.83
2018-01-01T12:34:34.525Z,6.27
2018-01-01T12:37:04.146Z,5.53
2018-01-01T12:39:32.959Z,4.63
2018-01-01T12:42:01.823Z,4.47
2018-01-01T12:44:30.687Z,8.17
2018-01-01T12:46:59.502Z,5.63
2018-01-01T12:49:28.353Z,9.67
2018-01-01T12:51:57.185Z,7.10
2018-01-01T12:54:26.804Z,8.10
2018-01-01T12:56:57.173Z,5.40
2018-01-01T12:59:26.028Z,4.93
2018-01-01T13:01:55.535Z,3.43
2018-01-01T13:04:24.422Z,5.27
2018-01-01T13:06:53.274Z,4.80
2018-01-01T13:09:22.086Z,2.27
2018-01-01T13:11:51.767Z,6.93
2018-01-01T13:14:20.595Z,5.07
2018-01-01T13:16:49.478Z,3.53
2018-01-01T13:19:18.368Z,4.87
2018-01-01T13:21:47.693Z,7.00
2018-01-01T13:24:16.526Z,6.30
2018-01-01T13:26:45.372Z,3.73
2018-01-01T13:29:14.192Z,8.10
2018-01-01T13:31:43.018Z,4.97
2018-01-01T13:34:12.634Z,3.40
2018-01-01T13:36:41.441Z,2.83
2018-01-01T13:39:10.950Z,4.70
2018-01-01T13:41:39.768Z,10.63
2018-01-01T13:44:08.605Z,5.33
2018-01-01T13:46:37.503Z,3.63
2018-01-01T13:49:06.346Z,5.00
2018-01-01T13:51:35.194Z,8.27
2018-01-01T13:54:04.025Z,3.00
2018-01-01T13:56:33.636Z,3.53
2018-01-01T13:59:02.530Z,10.27
2018-01-01T14:01:32.117Z,7.27
2018-01-01T14:04:00.942Z,7.60
2018-01-01T14:06:30.557Z,7.40
2018-01-01T14:08:59.450Z,7.40
2018-01-01T14:11:28.315Z,5.63
2018-01-01T14:13:57.931Z,11.13
2018-01-01T14:16:27.546Z,4.50
2018-01-01T14:18:56.410Z,14.77
2018-01-01T14:21:25.245Z,12.20
2018-01-01T14:23:54.140Z,6.90
2018-01-01T14:26:23.010Z,6.93
2018-01-01T14:28:51.868Z,5.80
2018-01-01T14:31:21.463Z,8.97
2018-01-01T14:33:50.286Z,6.17
2018-01-01T14:36:19.136Z,7.70
2018-01-01T14:38:47.954Z,4.07
2018-01-01T14:41:16.770Z,7.27
2018-01-01T14:43:45.635Z,14.77
2018-01-01T14:46:14.510Z,6.93
2018-01-01T14:48:44.422Z,5.27
2018-01-01T14:51:14.045Z,11.03
2018-01-01T14:53:43.662Z,13.10
2018-01-01T14:56:12.492Z,6.07
2018-01-01T14:58:41.329Z,6.03
2018-01-01T15:01:10.179Z,12.07
2018-01-01T15:03:39.016Z,8.30
2018-01-01T15:06:07.855Z,6.47
2018-01-01T15:08:37.491Z,8.30
2018-01-01T15:11:07.312Z,13.30
2018-01-01T15:13:36.146Z,9.20
2018-01-01T15:16:05.004Z,16.23
2018-01-01T15:18:34.814Z,6.03
2018-01-01T15:21:03.666Z,11.53
2018-01-01T15:23:33.323Z,12.00
2018-01-01T15:26:02.187Z,22.47
2018-01-01T15:28:31.030Z,27.33
2018-01-01T15:30:59.862Z,12.20
2018-01-01T15:33:28.716Z,12.83
2018-01-01T15:35:57.559Z,11.57
2018-01-01T15:38:26.393Z,8.10
2018-01-01T15:40:55.227Z,7.23
2018-01-01T15:43:24.053Z,7.53
2018-01-01T15:45:52.904Z,10.37
2018-01-01T15:48:21.733Z,14.80
2018-01-01T15:50:50.617Z,8.17
2018-01-01T15:53:19.488Z,13.83
2018-01-01T15:55:48.384Z,6.03
2018-01-01T15:58:17.274Z,10.47
2018-01-01T16:00:48.167Z,11.00
2018-01-01T16:03:17.133Z,8.60
2018-01-01T16:05:46.362Z,8.30
2018-01-01T16:08:16.095Z,11.10
2018-01-01T16:10:46.265Z,12.23
2018-01-01T16:13:15.186Z,9.20
2018-01-01T16:15:44.049Z,14.37
2018-01-01T16:18:12.933Z,18.93
2018-01-01T16:20:42.557Z,11.63
2018-01-01T16:23:11.447Z,10.05
2018-01-01T16:25:40.350Z,6.70
2018-01-01T16:28:09.258Z,12.10
2018-01-01T16:30:38.183Z,11.20
2018-01-01T16:33:07.403Z,10.10
2018-01-01T16:35:37.011Z,5.30
2018-01-01T16:38:06.655Z,14.00
2018-01-01T16:40:35.498Z,14.57
2018-01-01T16:43:05.145Z,8.83
2018-01-01T16:45:34.007Z,6.43
2018-01-01T16:48:03.622Z,8.73
2018-01-01T16:50:33.322Z,10.00
2018-01-01T16:53:02.944Z,9.47
2018-01-01T16:55:33.035Z,9.10
2018-01-01T16:58:01.898Z,8.43
2018-01-01T17:00:30.772Z,8.07
2018-01-01T17:02:59.651Z,7.10
2018-01-01T17:05:28.509Z,7.97
2018-01-01T17:07:57.370Z,6.53
2018-01-01T17:10:28.813Z,9.37
2018-01-01T17:12:58.125Z,9.97
2018-01-01T17:15:27.813Z,8.33
2018-01-01T17:17:56.745Z,4.87
2018-01-01T17:20:25.710Z,7.63
2018-01-01T17:22:54.583Z,6.17
2018-01-01T17:25:23.485Z,7.40
2018-01-01T17:27:52.531Z,4.53
2018-01-01T17:30:21.396Z,7.27
2018-01-01T17:32:50.357Z,5.60
2018-01-01T17:35:19.262Z,12.03
2018-01-01T17:37:48.199Z,4.20
2018-01-01T17:40:17.212Z,6.83
2018-01-01T17:42:46.223Z,9.40
2018-01-01T17:45:15.057Z,6.77
2018-01-01T17:47:45.388Z,8.50
2018-01-01T17:50:15.995Z,7.17
2018-01-01T17:52:45.020Z,13.23
2018-01-01T17:55:14.652Z,16.23
2018-01-01T17:57:43.565Z,8.73
2018-01-01T18:00:13.613Z,11.60
2018-01-01T18:02:42.867Z,5.27
2018-01-01T18:05:11.770Z,12.67
2018-01-01T18:07:41.443Z,10.50
2018-01-01T18:10:10.550Z,82.47
2018-01-01T18:12:40.427Z,15.27
2018-01-01T18:15:09.563Z,35.60
2018-01-01T18:17:38.860Z,9.67
2018-01-01T18:20:07.746Z,5.50
2018-01-01T18:22:36.589Z,6.97
2018-01-01T18:25:05.447Z,13.77
2018-01-01T18:27:35.438Z,8.50
2018-01-01T18:30:04.286Z,9.10
2018-01-01T18:32:33.429Z,8.37
2018-01-01T18:35:03.189Z,8.70
2018-01-01T18:37:32.288Z,9.30
2018-01-01T18:40:01.149Z,15.23
2018-01-01T18:42:30.274Z,8.13
2018-01-01T18:44:59.523Z,9.50
2018-01-01T18:47:29.856Z,9.50
2018-01-01T18:49:58.946Z,8.07
2018-01-01T18:52:28.866Z,7.70
2018-01-01T18:55:01.500Z,6.20
2018-01-01T18:57:33.786Z,3.97
2018-01-01T19:00:03.647Z,5.37
2018-01-01T19:02:33.877Z,3.10
2018-01-01T19:05:03.651Z,5.13
2018-01-01T19:07:33.760Z,8.00
2018-01-01T19:10:03.515Z,3.83
2018-01-01T19:12:35.628Z,6.83
2018-01-01T19:15:05.151Z,7.87
2018-01-01T19:17:34.352Z,4.53
2018-01-01T19:20:06.185Z,8.63
2018-01-01T19:22:35.486Z,3.73
2018-01-01T19:25:06.119Z,3.43
2018-01-01T19:27:35.942Z,10.50
2018-01-01T19:30:06.355Z,8.97
2018-01-01T19:32:36.482Z,8.63
2018-01-01T19:35:06.596Z,6.10
2018-01-01T19:37:36.814Z,8.77
2018-01-01T19:40:07.855Z,5.30
2018-01-01T19:42:37.210Z,8.13
2018-01-01T19:45:06.660Z,7.80
2018-01-01T19:47:36.722Z,5.10
2018-01-01T19:50:06.491Z,6.97
2018-01-01T19:52:37.844Z,12.67
2018-01-01T19:55:07.958Z,6.67
2018-01-01T19:57:40.138Z,7.33
2018-01-01T20:00:10.143Z,6.17
2018-01-01T20:02:39.560Z,6.63
2018-01-01T20:05:10.483Z,6.60
2018-01-01T20:07:41.856Z,6.90
2018-01-01T20:10:20.448Z,9.83
2018-01-01T20:12:50.082Z,10.00
2018-01-01T20:15:20.183Z,13.60
2018-01-01T20:17:50.201Z,9.27
2018-01-01T20:20:19.389Z,4.20
2018-01-01T20:22:50.341Z,5.03
2018-01-01T20:25:20.454Z,3.83
2018-01-01T20:27:49.398Z,3.03
2018-01-01T20:30:18.230Z,8.57
2018-01-01T20:32:47.426Z,4.13
2018-01-01T20:35:16.628Z,8.70
2018-01-01T20:37:45.820Z,3.47
2018-01-01T20:40:15.022Z,4.93
2018-01-01T20:42:44.222Z,7.40
2018-01-01T20:45:13.523Z,4.07
2018-01-01T20:47:42.430Z,2.80
2018-01-01T20:50:11.263Z,3.00
2018-01-01T20:52:40.101Z,4.27
2018-01-01T20:55:08.923Z,3.97
2018-01-01T20:57:37.894Z,3.53
2018-01-01T21:00:07.506Z,2.67
2018-01-01T21:02:37.124Z,3.10
2018-01-01T21:05:07.109Z,5.30
2018-01-01T21:07:37.318Z,4.13
2018-01-01T21:10:06.524Z,4.10
2018-01-01T21:12:35.766Z,6.03
2018-01-01T21:15:04.980Z,4.67
2018-01-01T21:17:33.858Z,6.57
2018-01-01T21:20:03.818Z,4.33
2018-01-01T21:22:33.016Z,5.20
2018-01-01T21:25:02.220Z,5.73
2018-01-01T21:27:31.064Z,4.20
2018-01-01T21:30:00.219Z,3.77
2018-01-01T21:32:29.849Z,4.50
2018-01-01T21:34:59.828Z,2.90
2018-01-01T21:37:29.647Z,4.07
2018-01-01T21:39:58.526Z,4.50
2018-01-01T21:42:27.622Z,3.10
2018-01-01T21:44:56.480Z,3.40
2018-01-01T21:47:25.395Z,3.00
2018-01-01T21:49:54.229Z,3.33
2018-01-01T21:52:23.152Z,3.07
2018-01-01T21:54:52.318Z,5.23
2018-01-01T21:57:21.150Z,3.10
2018-01-01T21:59:50.000Z,3.93
2018-01-01T22:02:19.615Z,4.23
2018-01-01T22:04:48.450Z,5.50
2018-01-01T22:07:17.438Z,3.50
2018-01-01T22:09:46.279Z,3.37
2018-01-01T22:12:15.898Z,3.20
2018-01-01T22:14:45.112Z,3.03
2018-01-01T22:17:14.035Z,2.60
2018-01-01T22:19:42.889Z,2.87
2018-01-01T22:22:11.745Z,2.90
2018-01-01T22:24:41.330Z,2.77
2018-01-01T22:27:10.162Z,2.30
2018-01-01T22:29:39.765Z,2.63
2018-01-01T22:32:08.603Z,2.20
2018-01-01T22:34:37.442Z,4.50
2018-01-01T22:37:06.294Z,2.50
2018-01-01T22:39:36.985Z,3.93
2018-01-01T22:42:05.783Z,4.13
2018-01-01T22:44:34.667Z,4.23
2018-01-01T22:47:03.492Z,7.83
2018-01-01T22:49:32.334Z,5.30
2018-01-01T22:52:01.258Z,9.53
2018-01-01T22:54:30.476Z,5.63
2018-01-01T22:57:00.793Z,8.37
2018-01-01T22:59:31.133Z,9.47
2018-01-01T23:02:00.423Z,13.30
2018-01-01T23:04:29.288Z,17.20
2018-01-01T23:06:58.885Z,19.60
2018-01-01T23:09:27.726Z,22.57
2018-01-01T23:11:56.564Z,21.77
2018-01-01T23:14:25.437Z,26.57
2018-01-01T23:16:55.039Z,28.20
2018-01-01T23:19:24.677Z,30.43
2018-01-01T23:21:53.510Z,29.73
2018-01-01T23:24:22.358Z,30.60
2018-01-01T23:26:51.205Z,30.43
2018-01-01T23:29:20.818Z,31.17
2018-01-01T23:31:50.453Z,27.97
2018-01-01T23:34:19.290Z,25.07
2018-01-01T23:36:48.175Z,22.50
2018-01-01T23:39:17.065Z,22.73
2018-01-01T23:41:45.885Z,25.40
2018-01-01T23:44:15.532Z,20.87
2018-01-01T23:46:44.373Z,20.97
2018-01-01T23:49:14.010Z,14.10
2018-01-01T23:51:42.863Z,12.83
2018-01-01T23:54:21.636Z,13.20
2018-01-01T23:56:50.461Z,7.80
2018-01-01T23:59:19.312Z,8.60
